createdAt,value
2023-05-14T00:02:23.678Z,101389.88
2023-05-14T00:04:53.453Z,101388.91
2023-05-14T00:07:30.882Z,101387.19
2023-05-14T00:10:00.938Z,101331.81
2023-05-14T00:12:30.678Z,101382.72
2023-05-14T00:15:00.804Z,101383.56
2023-05-14T00:17:30.700Z,101354.81
2023-05-14T00:20:00.726Z,101367.97
2023-05-14T00:22:33.096Z,101379.41
2023-05-14T00:25:02.950Z,101373.09
2023-05-14T00:27:32.781Z,101355.09
2023-05-14T00:30:02.605Z,101369.91
2023-05-14T00:32:32.421Z,101363.72
2023-05-14T00:35:03.283Z,101372.31
2023-05-14T00:37:36.547Z,101356.22
2023-05-14T00:40:07.133Z,101361.28
2023-05-14T00:42:37.329Z,101357.78
2023-05-14T00:45:08.279Z,101359.28
2023-05-14T00:47:39.517Z,101357.69
2023-05-14T00:50:10.936Z,101362.16
2023-05-14T00:52:43.659Z,101355.94
2023-05-14T00:55:16.757Z,101281.50
2023-05-14T00:57:47.171Z,101346.47
2023-05-14T01:00:17.774Z,101359.56
2023-05-14T01:02:47.687Z,101359.63
2023-05-14T01:05:17.617Z,101345.09
2023-05-14T01:07:57.926Z,101357.91
2023-05-14T01:10:32.010Z,101339.06
2023-05-14T01:13:11.083Z,101350.34
2023-05-14T01:15:42.815Z,101349.50
2023-05-14T01:18:16.297Z,101349.63
2023-05-14T01:20:46.461Z,101341.63
2023-05-14T01:23:18.915Z,101344.19
2023-05-14T01:25:48.877Z,101311.06
2023-05-14T01:28:20.796Z,101339.47
2023-05-14T01:30:59.653Z,101337.16
2023-05-14T01:33:32.233Z,101361.75
2023-05-14T01:36:02.183Z,101330.50
2023-05-14T01:38:36.500Z,101355.78
2023-05-14T01:41:07.680Z,101354.88
2023-05-14T01:43:38.409Z,101363.50
2023-05-14T01:46:08.342Z,101366.91
2023-05-14T01:48:38.189Z,101365.34
2023-05-14T01:51:07.943Z,101367.06
2023-05-14T01:53:40.295Z,101347.44
2023-05-14T01:56:10.576Z,101343.88
2023-05-14T01:58:40.306Z,101336.09
2023-05-14T02:01:10.058Z,101332.69
2023-05-14T02:03:39.875Z,101351.66
2023-05-14T02:06:10.109Z,101363.69
2023-05-14T02:08:42.501Z,101329.47
2023-05-14T02:11:12.315Z,101353.28
2023-05-14T02:13:42.190Z,101347.19
2023-05-14T02:16:12.403Z,101355.53
2023-05-14T02:18:42.273Z,101312.28
2023-05-14T02:21:12.007Z,101343.41
2023-05-14T02:23:44.454Z,101348.44
2023-05-14T02:26:14.586Z,101349.28
2023-05-14T02:28:44.585Z,101345.78
2023-05-14T02:31:17.745Z,101345.84
2023-05-14T02:33:47.639Z,101324.34
2023-05-14T02:36:17.371Z,101332.03
2023-05-14T02:38:49.938Z,101329.00
2023-05-14T02:41:20.197Z,101339.09
2023-05-14T02:43:50.048Z,101333.06
2023-05-14T02:46:19.805Z,101343.22
2023-05-14T02:48:49.568Z,101341.56
2023-05-14T02:51:19.672Z,101339.78
2023-05-14T02:53:52.052Z,101350.03
2023-05-14T02:56:22.513Z,101344.81
2023-05-14T02:58:52.353Z,101333.69
2023-05-14T03:01:22.209Z,101328.47
2023-05-14T03:03:52.756Z,101329.97
2023-05-14T03:06:22.592Z,101329.97
2023-05-14T03:08:54.934Z,101321.22
2023-05-14T03:11:24.716Z,101339.53
2023-05-14T03:13:54.470Z,101331.72
2023-05-14T03:16:24.250Z,101330.75
2023-05-14T03:18:54.101Z,101326.06
2023-05-14T03:21:23.900Z,101329.31
2023-05-14T03:23:56.800Z,101331.84
2023-05-14T03:26:26.601Z,101328.31
2023-05-14T03:28:56.535Z,101315.34
2023-05-14T03:31:26.715Z,101294.44
2023-05-14T03:33:59.534Z,101335.16
2023-05-14T03:36:29.303Z,101333.69
2023-05-14T03:39:01.667Z,101326.09
2023-05-14T03:41:31.408Z,101331.03
2023-05-14T03:44:01.183Z,101325.75
2023-05-14T03:46:31.031Z,101306.75
2023-05-14T03:49:00.789Z,101332.41
2023-05-14T03:51:31.939Z,101328.75
2023-05-14T03:54:04.332Z,101323.56
2023-05-14T03:56:34.175Z,101309.53
2023-05-14T03:59:03.901Z,101295.91
2023-05-14T04:01:35.167Z,101316.09
2023-05-14T04:04:05.013Z,101310.22
2023-05-14T04:06:35.547Z,101297.50
2023-05-14T04:09:07.884Z,101321.69
2023-05-14T04:11:38.083Z,101295.56
2023-05-14T04:14:08.519Z,101309.59
2023-05-14T04:16:38.294Z,101314.91
2023-05-14T04:19:09.150Z,101313.97
2023-05-14T04:21:39.105Z,101248.84
2023-05-14T04:24:11.681Z,101323.72
2023-05-14T04:26:41.475Z,101312.69
2023-05-14T04:29:11.293Z,101313.66
2023-05-14T04:31:42.224Z,101316.97
2023-05-14T04:34:12.027Z,101323.78
2023-05-14T04:36:41.769Z,101305.63
2023-05-14T04:39:14.121Z,101308.88
2023-05-14T04:41:43.942Z,101312.63
2023-05-14T04:44:16.037Z,101318.94
2023-05-14T04:46:45.794Z,101304.50
2023-05-14T04:49:15.525Z,101278.59
2023-05-14T04:51:45.294Z,101304.81
2023-05-14T04:54:17.649Z,101312.09
2023-05-14T04:56:47.877Z,101319.06
2023-05-14T04:59:17.673Z,101315.06
2023-05-14T05:01:48.045Z,101321.25
2023-05-14T05:04:17.839Z,101293.78
2023-05-14T05:06:47.584Z,101304.00
2023-05-14T05:09:20.201Z,101323.41
2023-05-14T05:11:49.929Z,101263.13
2023-05-14T05:14:19.746Z,101300.31
2023-05-14T05:16:49.999Z,101330.63
2023-05-14T05:19:22.356Z,101322.34
2023-05-14T05:21:56.413Z,101304.31
2023-05-14T05:24:28.766Z,101258.72
2023-05-14T05:26:58.588Z,101313.94
2023-05-14T05:29:28.314Z,101279.66
2023-05-14T05:31:58.074Z,101321.38
2023-05-14T05:34:27.819Z,101302.63
2023-05-14T05:36:57.535Z,101334.88
2023-05-14T05:39:34.986Z,101335.84
2023-05-14T05:42:05.059Z,101281.47
2023-05-14T05:44:34.816Z,101321.34
2023-05-14T05:47:04.718Z,101322.31
2023-05-14T05:49:34.603Z,101322.72
2023-05-14T05:52:04.315Z,101323.09
2023-05-14T05:54:36.759Z,101309.78
2023-05-14T05:57:06.860Z,101332.44
2023-05-14T05:59:36.606Z,101334.47
2023-05-14T06:02:06.514Z,101292.56
2023-05-14T06:04:36.322Z,101304.06
2023-05-14T06:07:06.251Z,101308.59
2023-05-14T06:09:38.546Z,101334.72
2023-05-14T06:12:09.449Z,101329.06
2023-05-14T06:14:39.161Z,101330.13
2023-05-14T06:17:08.937Z,101329.50
2023-05-14T06:19:38.717Z,101330.44
2023-05-14T06:22:08.478Z,101275.47
2023-05-14T06:24:40.819Z,101327.28
2023-05-14T06:27:10.875Z,101341.88
2023-05-14T06:29:40.648Z,101312.69
2023-05-14T06:32:12.130Z,101316.31
2023-05-14T06:34:41.945Z,101302.66
2023-05-14T06:37:12.449Z,101339.72
2023-05-14T06:39:50.123Z,101341.47
2023-05-14T06:42:20.129Z,101330.31
2023-05-14T06:44:50.745Z,101338.88
2023-05-14T06:47:20.513Z,101336.28
2023-05-14T06:49:50.245Z,101338.06
2023-05-14T06:52:19.980Z,101324.31
2023-05-14T06:54:52.386Z,101332.97
2023-05-14T06:57:22.278Z,101319.22
2023-05-14T06:59:52.262Z,101322.66
2023-05-14T07:02:22.085Z,101337.31
2023-05-14T07:04:51.823Z,101327.84
2023-05-14T07:07:21.512Z,101323.53
2023-05-14T07:09:53.889Z,101320.97
2023-05-14T07:12:23.621Z,101313.22
2023-05-14T07:14:53.301Z,101320.97
2023-05-14T07:17:23.118Z,101321.78
2023-05-14T07:19:52.946Z,101315.72
2023-05-14T07:22:22.662Z,101315.59
2023-05-14T07:24:54.944Z,101317.31
2023-05-14T07:27:24.688Z,101311.38
2023-05-14T07:29:54.477Z,101295.88
2023-05-14T07:32:25.235Z,101288.03
2023-05-14T07:34:55.012Z,101306.03
2023-05-14T07:37:26.115Z,101284.56
2023-05-14T07:39:58.531Z,101293.91
2023-05-14T07:42:36.027Z,101298.31
2023-05-14T07:45:07.529Z,101289.66
2023-05-14T07:47:37.461Z,101291.34
2023-05-14T07:50:07.815Z,101226.03
2023-05-14T07:52:37.625Z,101232.84
2023-05-14T07:55:10.915Z,101241.41
2023-05-14T07:57:41.040Z,101262.81
2023-05-14T08:00:12.382Z,101281.59
2023-05-14T08:02:45.565Z,101285.03
2023-05-14T08:05:15.505Z,101280.66
2023-05-14T08:07:45.268Z,101276.34
2023-05-14T08:10:17.546Z,101261.75
2023-05-14T08:12:47.369Z,101262.63
2023-05-14T08:15:17.709Z,101245.41
2023-05-14T08:17:47.490Z,101262.56
2023-05-14T08:20:17.207Z,101258.31
2023-05-14T08:22:46.936Z,101265.97
2023-05-14T08:25:19.415Z,101265.03
2023-05-14T08:27:49.147Z,101251.16
2023-05-14T08:30:19.201Z,101254.41
2023-05-14T08:32:48.963Z,101265.59
2023-05-14T08:35:19.173Z,101262.13
2023-05-14T08:37:50.324Z,101253.44
2023-05-14T08:40:23.028Z,101255.09
2023-05-14T08:42:54.445Z,101250.78
2023-05-14T08:45:26.737Z,101263.75
2023-05-14T08:47:58.503Z,101235.34
2023-05-14T08:50:30.359Z,101243.28
2023-05-14T08:53:00.590Z,101260.41
2023-05-14T08:55:34.304Z,101249.00
2023-05-14T08:58:04.321Z,101249.91
2023-05-14T09:00:34.075Z,101255.78
2023-05-14T09:03:04.368Z,101232.63
2023-05-14T09:05:34.355Z,101250.78
2023-05-14T09:08:04.137Z,101233.56
2023-05-14T09:10:37.509Z,101243.88
2023-05-14T09:13:10.249Z,101240.47
2023-05-14T09:15:41.775Z,101235.16
2023-05-14T09:18:12.638Z,101234.03
2023-05-14T09:20:42.502Z,101226.84
2023-05-14T09:23:12.253Z,101233.56
2023-05-14T09:25:45.484Z,101230.00
2023-05-14T09:28:15.283Z,101230.94
2023-05-14T09:30:44.993Z,101228.66
2023-05-14T09:33:14.698Z,101236.28
2023-05-14T09:35:44.753Z,101217.88
2023-05-14T09:38:14.810Z,101221.13
2023-05-14T09:40:49.369Z,101210.72
2023-05-14T09:43:19.103Z,101190.03
2023-05-14T09:45:48.792Z,101223.50
2023-05-14T09:48:18.791Z,101200.38
2023-05-14T09:50:49.828Z,101198.72
2023-05-14T09:53:19.517Z,101190.09
2023-05-14T09:55:52.160Z,101207.06
2023-05-14T09:58:21.944Z,101202.75
2023-05-14T10:00:52.058Z,101196.94
2023-05-14T10:03:25.437Z,101204.53
2023-05-14T10:05:55.748Z,101195.03
2023-05-14T10:08:29.707Z,101197.44
2023-05-14T10:11:04.705Z,101196.50
2023-05-14T10:13:40.719Z,101140.69
2023-05-14T10:16:19.310Z,101173.91
2023-05-14T10:18:52.019Z,101193.13
2023-05-14T10:21:23.602Z,101160.81
2023-05-14T10:23:53.954Z,101197.56
2023-05-14T10:26:26.422Z,101189.63
2023-05-14T10:28:56.401Z,101197.19
2023-05-14T10:31:26.615Z,101189.13
2023-05-14T10:33:57.937Z,101182.59
2023-05-14T10:36:28.999Z,101177.75
2023-05-14T10:38:59.736Z,101175.13
2023-05-14T10:41:32.087Z,101149.16
2023-05-14T10:44:02.241Z,101171.09
2023-05-14T10:46:32.153Z,101164.06
2023-05-14T10:49:02.226Z,101157.66
2023-05-14T10:51:33.639Z,101166.63
2023-05-14T10:54:03.927Z,101149.66
2023-05-14T10:56:36.277Z,101154.19
2023-05-14T10:59:05.999Z,101156.78
2023-05-14T11:01:36.227Z,101157.72
2023-05-14T11:04:06.477Z,101152.50
2023-05-14T11:06:37.051Z,101130.09
2023-05-14T11:09:08.817Z,101138.50
2023-05-14T11:11:41.247Z,101141.31
2023-05-14T11:14:11.035Z,101142.84
2023-05-14T11:16:41.621Z,101151.00
2023-05-14T11:19:11.565Z,101146.56
2023-05-14T11:21:41.870Z,101118.81
2023-05-14T11:24:11.849Z,101142.13
2023-05-14T11:26:44.230Z,101140.34
2023-05-14T11:29:14.035Z,101100.81
2023-05-14T11:31:43.797Z,101116.66
2023-05-14T11:34:13.681Z,101108.78
2023-05-14T11:36:43.544Z,101122.50
2023-05-14T11:39:20.831Z,101113.31
2023-05-14T11:41:53.147Z,101122.16
2023-05-14T11:44:22.902Z,101118.66
2023-05-14T11:46:59.398Z,101113.47
2023-05-14T11:49:32.057Z,101105.50
2023-05-14T11:52:02.342Z,101116.44
2023-05-14T11:54:32.697Z,101095.00
2023-05-14T11:57:10.307Z,101103.97
2023-05-14T11:59:41.175Z,101088.91
2023-05-14T12:02:13.638Z,101112.00
2023-05-14T12:04:44.572Z,101105.63
2023-05-14T12:07:15.809Z,101107.31
2023-05-14T12:09:49.651Z,101100.13
2023-05-14T12:12:23.689Z,101102.13
2023-05-14T12:14:53.659Z,101091.94
2023-05-14T12:17:25.171Z,101098.72
2023-05-14T12:19:56.560Z,101093.56
2023-05-14T12:22:26.512Z,101065.75
2023-05-14T12:24:56.753Z,101088.63
2023-05-14T12:27:30.577Z,101043.47
2023-05-14T12:30:27.481Z,101075.91
2023-05-14T12:32:54.090Z,101072.28
2023-05-14T12:35:24.493Z,101067.78
2023-05-14T12:37:54.377Z,101060.38
2023-05-14T12:40:24.344Z,101075.66
2023-05-14T12:42:57.066Z,101048.09
2023-05-14T12:45:26.932Z,101008.50
2023-05-14T12:47:56.734Z,101049.50
2023-05-14T12:50:26.738Z,101039.97
2023-05-14T12:52:56.809Z,101043.97
2023-05-14T12:55:26.556Z,101033.81
2023-05-14T12:57:59.032Z,101055.34
2023-05-14T13:00:28.733Z,101051.25
2023-05-14T13:02:58.537Z,101045.78
2023-05-14T13:05:28.355Z,101028.91
2023-05-14T13:08:02.379Z,101022.31
2023-05-14T13:10:32.159Z,101030.81
2023-05-14T13:13:04.565Z,101017.78
2023-05-14T13:15:34.458Z,101027.81
2023-05-14T13:18:04.259Z,101021.88
2023-05-14T13:20:34.051Z,101009.16
2023-05-14T13:23:03.808Z,101015.22
2023-05-14T13:25:33.625Z,101000.78
2023-05-14T13:28:05.909Z,101013.84
2023-05-14T13:30:35.666Z,101007.00
2023-05-14T13:33:05.812Z,100996.53
2023-05-14T13:35:36.143Z,101002.75
2023-05-14T13:38:06.002Z,100993.22
2023-05-14T13:40:35.720Z,100984.84
2023-05-14T13:43:08.030Z,100998.84
2023-05-14T13:45:40.586Z,100988.09
2023-05-14T13:48:10.342Z,100981.41
2023-05-14T13:50:40.123Z,100995.97
2023-05-14T13:53:09.896Z,100969.53
2023-05-14T13:55:39.680Z,100965.34
2023-05-14T13:58:12.029Z,100985.78
2023-05-14T14:00:41.799Z,100920.56
2023-05-14T14:03:11.778Z,100974.81
2023-05-14T14:05:41.657Z,100941.78
2023-05-14T14:08:22.516Z,100955.28
2023-05-14T14:10:55.502Z,100970.25
2023-05-14T14:13:29.648Z,100972.28
2023-05-14T14:15:59.433Z,100964.47
2023-05-14T14:18:29.649Z,100945.38
2023-05-14T14:20:59.822Z,100954.50
2023-05-14T14:23:29.596Z,100939.47
2023-05-14T14:25:59.381Z,100960.97
2023-05-14T14:28:31.759Z,100933.97
2023-05-14T14:31:01.599Z,100953.56
2023-05-14T14:33:31.443Z,100917.63
2023-05-14T14:36:01.227Z,100919.16
2023-05-14T14:38:30.975Z,100922.19
2023-05-14T14:41:03.153Z,100928.94
2023-05-14T14:43:35.645Z,100914.53
2023-05-14T14:46:05.589Z,100930.25
2023-05-14T14:48:37.864Z,100927.88
2023-05-14T14:51:08.522Z,100938.09
2023-05-14T14:53:40.530Z,100933.16
2023-05-14T14:56:10.540Z,100935.44
2023-05-14T14:58:42.897Z,100905.00
2023-05-14T15:01:12.688Z,100917.28
2023-05-14T15:03:42.870Z,100892.78
2023-05-14T15:06:12.730Z,100911.66
2023-05-14T15:08:42.624Z,100895.31
2023-05-14T15:11:12.407Z,100918.84
2023-05-14T15:13:44.728Z,100912.00
2023-05-14T15:16:14.648Z,100915.97
2023-05-14T15:18:44.525Z,100913.97
2023-05-14T15:21:14.390Z,100877.59
2023-05-14T15:23:44.112Z,100908.06
2023-05-14T15:26:13.834Z,100914.81
2023-05-14T15:28:46.164Z,100911.44
2023-05-14T15:31:15.979Z,100891.91
2023-05-14T15:33:45.707Z,100907.91
2023-05-14T15:36:15.600Z,100902.81
2023-05-14T15:38:45.416Z,100909.47
2023-05-14T15:41:15.217Z,100901.78
2023-05-14T15:43:47.518Z,100908.69
2023-05-14T15:46:17.271Z,100910.44
2023-05-14T15:48:47.096Z,100910.84
2023-05-14T15:51:16.994Z,100901.66
2023-05-14T15:53:46.823Z,100894.47
2023-05-14T15:56:16.723Z,100902.44
2023-05-14T15:58:49.099Z,100880.78
2023-05-14T16:01:19.318Z,100879.50
2023-05-14T16:03:49.921Z,100888.03
2023-05-14T16:06:20.461Z,100898.94
2023-05-14T16:08:51.431Z,100904.03
2023-05-14T16:11:21.669Z,100903.25
2023-05-14T16:13:54.144Z,100902.03
2023-05-14T16:16:23.949Z,100891.75
2023-05-14T16:18:53.853Z,100893.84
2023-05-14T16:21:23.615Z,100895.56
2023-05-14T16:23:53.354Z,100890.84
2023-05-14T16:26:23.166Z,100858.31
2023-05-14T16:28:55.499Z,100901.53
2023-05-14T16:31:25.289Z,100904.72
2023-05-14T16:33:55.199Z,100890.34
2023-05-14T16:36:24.965Z,100890.44
2023-05-14T16:39:06.692Z,100877.00
2023-05-14T16:41:37.721Z,100885.69
2023-05-14T16:44:10.144Z,100880.72
2023-05-14T16:46:39.955Z,100885.19
2023-05-14T16:49:09.722Z,100885.94
2023-05-14T16:51:43.190Z,100873.88
2023-05-14T16:54:12.998Z,100882.44
2023-05-14T16:56:42.753Z,100861.31
2023-05-14T16:59:15.060Z,100840.00
2023-05-14T17:01:45.013Z,100882.78
2023-05-14T17:04:15.055Z,100873.19
2023-05-14T17:06:44.862Z,100882.59
2023-05-14T17:09:17.104Z,100882.63
2023-05-14T17:11:46.876Z,100872.69
2023-05-14T17:14:19.218Z,100886.31
2023-05-14T17:16:49.003Z,100885.34
2023-05-14T17:19:18.741Z,100880.03
2023-05-14T17:21:48.553Z,100869.50
2023-05-14T17:24:18.309Z,100882.34
2023-05-14T17:26:48.142Z,100884.94
2023-05-14T17:29:20.494Z,100879.75
2023-05-14T17:31:51.051Z,100883.59
2023-05-14T17:34:21.294Z,100880.38
2023-05-14T17:36:51.187Z,100879.41
2023-05-14T17:39:21.018Z,100858.81
2023-05-14T17:41:50.784Z,100879.56
2023-05-14T17:44:23.191Z,100881.28
2023-05-14T17:46:53.097Z,100882.63
2023-05-14T17:49:22.891Z,100895.09
2023-05-14T17:51:52.645Z,100892.69
2023-05-14T17:54:22.418Z,100880.03
2023-05-14T17:56:53.233Z,100892.03
2023-05-14T17:59:25.729Z,100885.28
2023-05-14T18:01:55.469Z,100880.28
2023-05-14T18:04:25.248Z,100878.53
2023-05-14T18:06:55.026Z,100901.94
2023-05-14T18:09:24.780Z,100898.63
2023-05-14T18:11:56.771Z,100897.13
2023-05-14T18:14:29.435Z,100895.66
2023-05-14T18:16:59.336Z,100894.13
2023-05-14T18:19:29.117Z,100915.75
2023-05-14T18:21:58.860Z,100888.47
2023-05-14T18:24:29.015Z,100901.50
2023-05-14T18:26:58.810Z,100902.56
2023-05-14T18:29:31.207Z,100907.69
2023-05-14T18:32:00.989Z,100906.94
2023-05-14T18:34:30.742Z,100900.97
2023-05-14T18:37:01.203Z,100911.25
2023-05-14T18:39:30.948Z,100908.75
2023-05-14T18:42:00.701Z,100896.91
2023-05-14T18:44:33.104Z,100914.88
2023-05-14T18:47:02.905Z,100897.88
2023-05-14T18:49:32.641Z,100892.03
2023-05-14T18:52:02.437Z,100908.38
2023-05-14T18:54:32.180Z,100912.72
2023-05-14T18:57:02.729Z,100890.56
2023-05-14T18:59:35.076Z,100912.06
2023-05-14T19:02:04.939Z,100900.19
2023-05-14T19:04:44.289Z,100900.25
2023-05-14T19:07:20.805Z,100917.47
2023-05-14T19:09:50.994Z,100908.97
2023-05-14T19:12:20.789Z,100895.34
2023-05-14T19:14:53.148Z,100913.38
2023-05-14T19:17:22.987Z,100911.78
2023-05-14T19:19:52.946Z,100897.25
2023-05-14T19:22:22.720Z,100925.66
2023-05-14T19:24:52.509Z,100913.75
2023-05-14T19:27:24.245Z,100901.00
2023-05-14T19:29:56.595Z,100903.75
2023-05-14T19:32:26.465Z,100897.03
2023-05-14T19:34:56.233Z,100911.69
2023-05-14T19:37:26.371Z,100874.88
2023-05-14T19:39:56.119Z,100900.63
2023-05-14T19:42:25.864Z,100897.09
2023-05-14T19:44:58.173Z,100914.22
2023-05-14T19:47:28.727Z,100900.63
2023-05-14T19:49:58.564Z,100917.03
2023-05-14T19:52:28.420Z,100882.69
2023-05-14T19:54:58.206Z,100873.28
2023-05-14T19:57:28.015Z,100911.91
2023-05-14T20:00:00.427Z,100896.44
2023-05-14T20:02:30.289Z,100895.78
2023-05-14T20:05:00.074Z,100906.09
2023-05-14T20:07:30.357Z,100907.13
2023-05-14T20:10:00.200Z,100913.19
2023-05-14T20:12:31.709Z,100908.06
2023-05-14T20:15:04.400Z,100913.19
2023-05-14T20:17:34.296Z,100906.31
2023-05-14T20:20:04.894Z,100899.47
2023-05-14T20:22:34.675Z,100910.66
2023-05-14T20:25:04.436Z,100895.25
2023-05-14T20:27:34.159Z,100910.72
2023-05-14T20:30:07.191Z,100902.16
2023-05-14T20:32:37.197Z,100903.06
2023-05-14T20:35:07.710Z,100885.94
2023-05-14T20:37:38.086Z,100898.84
2023-05-14T20:40:10.486Z,100905.63
2023-05-14T20:42:40.429Z,100906.50
2023-05-14T20:45:14.139Z,100906.53
2023-05-14T20:47:43.997Z,100909.13
2023-05-14T20:50:14.553Z,100910.81
2023-05-14T20:52:44.320Z,100894.50
2023-05-14T20:55:14.222Z,100895.38
2023-05-14T20:57:43.994Z,100899.69
2023-05-14T21:00:17.491Z,100883.34
2023-05-14T21:02:49.361Z,100870.50
2023-05-14T21:05:20.965Z,100884.19
2023-05-14T21:07:50.761Z,100887.66
2023-05-14T21:10:20.605Z,100859.38
2023-05-14T21:12:50.337Z,100862.78
2023-05-14T21:15:23.389Z,100848.19
2023-05-14T21:17:53.358Z,100881.69
2023-05-14T21:20:23.330Z,100877.38
2023-05-14T21:22:53.040Z,100880.81
2023-05-14T21:25:23.142Z,100861.09
2023-05-14T21:27:53.122Z,100879.09
2023-05-14T21:30:25.616Z,100876.53
2023-05-14T21:32:55.369Z,100868.81
2023-05-14T21:35:25.288Z,100877.41
2023-05-14T21:37:55.260Z,100871.38
2023-05-14T21:40:25.012Z,100875.66
2023-05-14T21:42:54.785Z,100870.50
2023-05-14T21:45:27.221Z,100835.31
2023-05-14T21:47:57.270Z,100817.25
2023-05-14T21:50:27.154Z,100842.16
2023-05-14T21:52:57.062Z,100862.78
2023-05-14T21:55:27.835Z,100858.50
2023-05-14T21:57:57.923Z,100860.13
2023-05-14T22:00:30.755Z,100861.84
2023-05-14T22:03:00.669Z,100862.69
2023-05-14T22:05:30.454Z,100869.53
2023-05-14T22:08:00.265Z,100838.66
2023-05-14T22:10:30.051Z,100833.50
2023-05-14T22:12:59.789Z,100858.41
2023-05-14T22:15:32.099Z,100871.25
2023-05-14T22:18:03.328Z,100866.13
2023-05-14T22:20:33.134Z,100852.34
2023-05-14T22:23:03.076Z,100870.38
2023-05-14T22:25:32.892Z,100860.91
2023-05-14T22:28:02.629Z,100872.03
2023-05-14T22:30:34.955Z,100860.00
2023-05-14T22:33:04.819Z,100866.84
2023-05-14T22:35:34.727Z,100849.59
2023-05-14T22:38:04.494Z,100853.91
2023-05-14T22:40:34.244Z,100847.03
2023-05-14T22:43:03.955Z,100843.59
2023-05-14T22:45:36.347Z,100797.97
2023-05-14T22:48:06.166Z,100839.13
2023-05-14T22:50:35.962Z,100827.22
2023-05-14T22:53:05.697Z,100814.28
2023-05-14T22:55:36.351Z,100835.81
2023-05-14T22:58:06.105Z,100837.41
2023-05-14T23:00:38.493Z,100831.34
2023-05-14T23:03:08.280Z,100839.03
2023-05-14T23:05:38.121Z,100827.06
2023-05-14T23:08:08.507Z,100811.59
2023-05-14T23:10:38.236Z,100824.47
2023-05-14T23:13:08.064Z,100819.34
2023-05-14T23:15:40.513Z,100804.78
2023-05-14T23:18:11.060Z,100806.41
2023-05-14T23:20:40.908Z,100813.31
2023-05-14T23:23:10.695Z,100803.81
2023-05-14T23:25:40.424Z,100777.25
2023-05-14T23:28:10.182Z,100790.19
2023-05-14T23:30:42.543Z,100793.59
2023-05-14T23:33:12.290Z,100794.41
2023-05-14T23:35:42.696Z,100790.03
2023-05-14T23:38:12.431Z,100790.06
2023-05-14T23:40:42.132Z,100771.16
2023-05-14T23:43:11.830Z,100782.31
2023-05-14T23:45:44.416Z,100760.03
2023-05-14T23:48:14.162Z,100772.03
2023-05-14T23:50:44.119Z,100765.94
2023-05-14T23:53:13.841Z,100758.97
2023-05-14T23:55:43.712Z,100769.31
2023-05-14T23:58:13.489Z,100768.41
